Koshkonong, Missouri
Current Conditions -  °F | °C
As of 7:53 PM on Friday 28 Nov 2014 (Local Time) from KUNO Reporting Station
Clear Clear  
Wind Chill: 41°   Ceiling: Unl
Heat Index: 46°   Visibility: 10mi
Dew Point: 32°   Wind: 9mph
Humidity: 58%   Direction: 180°S
Pressure: 29.97"   Gusts: NA
Location:  36.6°N, 91.65°W
Report Text: KUNO 290153Z AUTO 18008KT 10SM CLR 08/00 A2997 RMK AO2 SLP155 T00780000
Loading
Personal Weather Stations






























Interactive Weather Map New forecast layout! Learn more

10-Day Weather Forecast

Advertisements
Track Severe Weather on mobile